Time;durP1;ratioP1;P1;durP2;ratioP2;P2;SDS_P1;SDS_P2;PMS_P1;PMS_P2;Temp;Humidity;BMP_temperature;BMP_pressure;BME280_temperature;BME280_humidity;BME280_pressure;Samples;Min_cycle;Max_cycle;Signal;HPM_P1;HPM_P2
2022/02/05 00:02:13;;;;;;;2.30;1.00;;;;;;;5.89;78.32;98293.31;4176521;28;20201;-82
2022/02/05 00:04:18;;;;;;;2.60;1.00;;;;;;;5.86;78.94;98295.22;4172960;28;20733;-82
2022/02/05 00:06:26;;;;;;;1.60;1.10;;;;;;;5.78;78.76;98299.91;4191233;28;20272;-82
2022/02/05 00:08:57;;;;;;;5.75;1.60;;;;;;;5.77;78.54;98298.22;4159127;28;20204;-81
2022/02/05 00:11:36;;;;;;;1.67;1.20;;;;;;;5.82;78.82;98298.88;4171300;28;20215;-81
2022/02/05 00:14:16;;;;;;;2.17;1.23;;;;;;;5.78;78.78;98308.50;4157758;28;20237;-81
2022/02/05 00:38:12;;;;;;;1.50;0.80;;;;;;;5.53;78.50;98337.25;4169571;28;20200;-82
2022/02/05 00:40:18;;;;;;;1.10;0.90;;;;;;;5.47;78.49;98340.94;4159605;28;20206;-82
2022/02/05 00:42:32;;;;;;;1.35;0.70;;;;;;;5.53;77.89;98351.03;4149517;28;20210;-82
2022/02/05 00:44:35;;;;;;;2.55;0.98;;;;;;;5.55;76.88;98358.72;4172239;28;20202;-81
2022/02/05 00:46:40;;;;;;;1.55;0.80;;;;;;;5.43;77.61;98357.53;4157515;28;20212;-82
2022/02/05 00:48:44;;;;;;;1.92;0.90;;;;;;;5.43;78.14;98360.13;4180442;28;20219;-82
2022/02/05 00:50:52;;;;;;;1.60;1.02;;;;;;;5.38;78.06;98368.97;4174442;28;20216;-82
2022/02/05 00:53:02;;;;;;;1.13;0.80;;;;;;;5.36;77.69;98371.63;4158684;28;20219;-81
2022/02/05 00:55:09;;;;;;;1.90;0.80;;;;;;;5.35;77.49;98377.72;4158443;28;20196;-82
2022/02/05 00:57:32;;;;;;;2.30;1.00;;;;;;;5.35;78.03;98379.44;4162820;28;20204;-81
2022/02/05 00:59:36;;;;;;;2.38;1.05;;;;;;;5.33;78.74;98383.84;4176227;28;20266;-81
2022/02/05 01:01:39;;;;;;;2.65;0.85;;;;;;;5.32;79.18;98387.31;4161205;28;20631;-81
2022/02/05 01:03:42;;;;;;;1.45;0.88;;;;;;;5.47;78.38;98394.41;4154259;28;20209;-81
2022/02/05 01:05:47;;;;;;;2.85;0.80;;;;;;;5.39;78.18;98397.34;4149637;28;20613;-82
2022/02/05 01:07:50;;;;;;;1.20;0.77;;;;;;;5.36;79.44;98405.22;4153940;28;20228;-83
2022/02/05 01:09:53;;;;;;;2.22;0.90;;;;;;;5.37;79.38;98403.50;4181329;28;20203;-82
2022/02/05 01:11:58;;;;;;;1.25;0.70;;;;;;;5.38;79.43;98402.56;4150680;28;20205;-82
2022/02/05 01:14:07;;;;;;;3.00;0.90;;;;;;;5.38;80.06;98403.44;4175929;28;20239;-81
2022/02/05 01:16:18;;;;;;;1.90;1.00;;;;;;;5.41;80.61;98407.63;4176486;28;20204;-83
2022/02/05 01:18:23;;;;;;;2.53;1.10;;;;;;;5.44;80.40;98405.75;4174420;28;20270;-82
2022/02/05 01:21:01;;;;;;;1.40;1.05;;;;;;;5.45;80.48;98417.75;4184691;28;20219;-82
2022/02/05 01:23:03;;;;;;;3.03;0.93;;;;;;;5.46;80.75;98416.88;4155652;28;20221;-82
2022/02/05 01:25:06;;;;;;;2.00;1.08;;;;;;;5.46;80.23;98434.97;4162590;28;20223;-82
2022/02/05 01:27:13;;;;;;;1.35;1.15;;;;;;;5.45;80.74;98428.09;4172925;28;20214;-81
2022/02/05 01:29:26;;;;;;;2.53;1.25;;;;;;;5.45;81.06;98430.69;4175692;28;20599;-81
2022/02/05 01:31:38;;;;;;;1.90;1.00;;;;;;;5.47;81.05;98446.97;4157814;28;20207;-82
2022/02/05 01:34:00;;;;;;;1.10;0.80;;;;;;;5.45;81.43;98435.88;4188224;28;20207;-81
2022/02/05 01:36:21;;;;;;;1.73;1.00;;;;;;;5.47;81.82;98439.22;4172546;28;20291;-81
2022/02/05 01:50:29;;;;;;;2.17;1.20;;;;;;;5.40;81.49;98453.31;4172138;28;21047;-82
2022/02/05 01:52:43;;;;;;;1.90;1.20;;;;;;;5.38;81.41;98462.91;4160816;28;20217;-82
2022/02/05 01:55:09;;;;;;;1.52;1.20;;;;;;;5.34;81.71;98461.34;4158648;28;20323;-81
2022/02/05 01:57:18;;;;;;;2.17;1.35;;;;;;;5.35;81.88;98457.88;4162176;28;20203;-81
2022/02/05 01:59:32;;;;;;;2.58;1.00;;;;;;;5.33;81.86;98462.22;4160610;28;20208;-81
2022/02/05 02:06:33;;;;;;;2.67;1.40;;;;;;;5.05;81.84;98463.47;4176397;28;20205;-81
2022/02/05 02:11:21;;;;;;;3.05;1.10;;;;;;;4.98;81.67;98471.53;4175813;28;20204;-82
2022/02/05 02:15:53;;;;;;;2.97;1.40;;;;;;;4.97;81.32;98478.41;4174621;28;20207;-81
2022/02/05 02:18:16;;;;;;;4.28;1.35;;;;;;;4.95;80.87;98481.97;4187190;28;20221;-82
2022/02/05 02:20:34;;;;;;;2.53;1.10;;;;;;;4.92;80.84;98477.75;4155101;28;20208;-82
2022/02/05 02:22:45;;;;;;;2.75;1.27;;;;;;;4.91;81.21;98478.66;4175470;28;20230;-82
2022/02/05 02:25:00;;;;;;;1.92;1.40;;;;;;;4.88;80.99;98476.19;4173406;28;20211;-81
2022/02/05 02:27:17;;;;;;;3.38;1.10;;;;;;;4.91;81.30;98475.25;4172491;28;20220;-82
2022/02/05 02:29:34;;;;;;;2.03;1.38;;;;;;;4.92;81.50;98477.75;4172342;28;20298;-82
2022/02/05 02:31:41;;;;;;;2.20;1.33;;;;;;;4.90;81.09;98483.88;4173748;28;20268;-82
2022/02/05 02:33:49;;;;;;;4.97;1.30;;;;;;;4.90;80.54;98483.88;4179566;28;20233;-82
2022/02/05 02:35:53;;;;;;;2.40;1.25;;;;;;;4.90;81.30;98478.72;4182795;28;20206;-82
2022/02/05 02:38:05;;;;;;;2.55;1.00;;;;;;;4.88;80.42;98491.69;4152541;28;20229;-81
2022/02/05 02:40:19;;;;;;;3.17;1.80;;;;;;;4.86;81.40;98488.34;4150195;28;20202;-81
2022/02/05 02:42:23;;;;;;;2.28;1.20;;;;;;;4.85;80.52;98493.56;4188273;28;20904;-81
2022/02/05 02:44:26;;;;;;;2.65;1.40;;;;;;;4.83;81.27;98495.38;4160427;28;20217;-82
2022/02/05 02:46:30;;;;;;;1.60;1.20;;;;;;;4.79;80.88;98492.06;4179583;28;20211;-82
2022/02/05 02:48:34;;;;;;;3.60;2.10;;;;;;;4.77;80.65;98499.03;4169221;28;20233;-81
2022/02/05 02:56:28;;;;;;;3.08;1.77;;;;;;;4.70;80.69;98495.00;4162120;28;20751;-82
2022/02/05 02:57:50;;;;;;;2.70;1.52;;;;;;;4.64;80.90;98519.41;4194425;28;20682;-82
2022/02/05 03:00:02;;;;;;;2.60;1.30;;;;;;;4.62;82.05;98519.44;4173932;28;20262;-81
2022/02/05 03:02:11;;;;;;;3.05;1.95;;;;;;;4.57;81.36;98516.22;4178011;28;20301;-83
2022/02/05 03:04:14;;;;;;;3.10;1.70;;;;;;;4.50;81.38;98519.09;4188620;28;20205;-83
2022/02/05 03:06:18;;;;;;;2.47;1.58;;;;;;;4.44;81.35;98522.72;4169274;28;20195;-81
2022/02/05 03:08:22;;;;;;;3.25;2.00;;;;;;;4.42;82.13;98521.09;4171235;28;20216;-82
2022/02/05 03:10:26;;;;;;;3.55;1.70;;;;;;;4.41;82.51;98515.09;4153341;28;20213;-81
2022/02/05 03:12:29;;;;;;;3.95;1.90;;;;;;;4.44;82.26;98527.88;4173035;28;20762;-82
2022/02/05 03:14:32;;;;;;;2.85;1.60;;;;;;;4.43;81.85;98526.19;4175224;28;20593;-81
2022/02/05 03:16:37;;;;;;;3.63;1.73;;;;;;;4.41;82.37;98528.00;4178264;28;20215;-81
2022/02/05 03:18:49;;;;;;;3.72;1.70;;;;;;;4.39;81.50;98527.22;4176545;28;20196;-82
2022/02/05 03:20:52;;;;;;;3.45;1.52;;;;;;;4.39;81.80;98534.97;4173810;28;20694;-81
2022/02/05 03:22:56;;;;;;;4.47;1.50;;;;;;;4.36;82.35;98529.91;4174370;28;20204;-81
2022/02/05 03:25:01;;;;;;;3.15;1.40;;;;;;;4.34;82.62;98536.84;4160212;28;20584;-82
2022/02/05 03:27:08;;;;;;;2.85;1.38;;;;;;;4.33;82.32;98542.94;4176411;28;20771;-81
2022/02/05 03:29:12;;;;;;;3.78;1.30;;;;;;;4.30;81.77;98537.88;4175169;28;20250;-81
2022/02/05 03:31:18;;;;;;;2.83;1.55;;;;;;;4.26;82.20;98538.06;4178678;28;20216;-82
2022/02/05 03:33:21;;;;;;;3.95;1.40;;;;;;;4.19;82.65;98535.75;4166319;28;20207;-82
2022/02/05 03:35:24;;;;;;;2.88;1.50;;;;;;;4.13;82.56;98547.13;4180040;28;20202;-82
2022/02/05 03:37:28;;;;;;;6.53;2.10;;;;;;;4.14;81.70;98548.81;4174285;28;20566;-82
2022/02/05 03:39:33;;;;;;;4.22;1.50;;;;;;;4.14;81.86;98548.00;4194063;28;20203;-82
2022/02/05 03:41:37;;;;;;;3.25;1.42;;;;;;;4.12;82.09;98555.78;4157638;28;20208;-83
2022/02/05 03:43:40;;;;;;;3.28;1.50;;;;;;;4.11;82.54;98561.00;4176883;28;20212;-81
2022/02/05 03:45:46;;;;;;;4.57;1.80;;;;;;;4.11;82.70;98561.81;4174026;28;20203;-82
2022/02/05 03:47:52;;;;;;;2.22;1.48;;;;;;;4.14;82.56;98566.03;4162562;28;20294;-81
2022/02/05 03:49:55;;;;;;;3.85;2.00;;;;;;;4.15;82.14;98566.00;4174961;28;20755;-82
2022/02/05 03:51:59;;;;;;;3.20;2.17;;;;;;;4.18;82.47;98575.34;4174032;28;20216;-81
2022/02/05 03:54:02;;;;;;;2.83;2.00;;;;;;;4.12;81.81;98573.84;4160519;28;20573;-82
2022/02/05 03:56:08;;;;;;;4.07;2.00;;;;;;;4.11;82.83;98576.47;4173196;28;20210;-81
2022/02/05 03:58:12;;;;;;;4.63;2.20;;;;;;;4.06;81.90;98574.06;4173396;28;20211;-81
2022/02/05 04:00:16;;;;;;;3.83;1.83;;;;;;;4.09;83.52;98580.81;4157718;28;20211;-81
2022/02/05 04:02:21;;;;;;;4.25;2.00;;;;;;;4.13;82.18;98579.84;4179761;28;20595;-81
2022/02/05 04:04:27;;;;;;;3.95;2.17;;;;;;;4.14;83.68;98597.00;4191539;28;20241;-81
2022/02/05 04:06:30;;;;;;;2.95;1.77;;;;;;;4.13;82.81;98592.75;4175421;28;20212;-81
2022/02/05 04:08:33;;;;;;;3.22;1.90;;;;;;;4.05;82.24;98598.16;4161027;28;20227;-81
2022/02/05 04:10:45;;;;;;;3.72;1.80;;;;;;;3.98;81.83;98594.09;4174357;28;20743;-81
2022/02/05 04:17:31;;;;;;;4.47;1.90;;;;;;;3.81;82.75;98613.63;4174106;28;20630;-81
2022/02/05 04:19:34;;;;;;;3.15;1.85;;;;;;;3.82;83.56;98611.00;4159679;28;20194;-81
2022/02/05 04:21:37;;;;;;;4.57;2.65;;;;;;;3.86;82.76;98617.75;4154985;28;20207;-81
2022/02/05 04:23:41;;;;;;;3.88;2.55;;;;;;;3.87;83.22;98619.41;4151089;28;20224;-81
2022/02/05 04:25:44;;;;;;;3.45;2.30;;;;;;;3.90;83.00;98623.66;4163991;28;20223;-81
2022/02/05 04:27:47;;;;;;;5.22;2.70;;;;;;;3.89;83.30;98627.09;4155172;28;20242;-81
2022/02/05 04:29:52;;;;;;;2.75;2.10;;;;;;;3.92;83.40;98639.91;4171198;28;20245;-81
2022/02/05 04:31:57;;;;;;;4.93;2.08;;;;;;;3.94;83.66;98648.44;4158843;28;20280;-82
2022/02/05 04:34:00;;;;;;;3.90;2.00;;;;;;;3.97;82.90;98650.91;4169983;28;20206;-81
2022/02/05 04:36:05;;;;;;;3.15;1.80;;;;;;;3.96;83.67;98650.06;4192783;28;20201;-81
2022/02/05 04:38:08;;;;;;;3.92;1.95;;;;;;;3.95;83.39;98647.53;4172294;28;20579;-81
2022/02/05 04:40:24;;;;;;;3.75;2.15;;;;;;;3.99;83.99;98649.13;4174086;28;20206;-82
2022/02/05 04:42:39;;;;;;;5.20;2.25;;;;;;;4.05;84.02;98654.09;4151837;28;20211;-82
2022/02/05 04:45:01;;;;;;;2.42;1.88;;;;;;;4.08;84.04;98648.81;4176182;28;20246;-81
2022/02/05 04:54:36;;;;;;;3.25;2.17;;;;;;;4.38;85.19;98646.88;4175772;28;20214;-82
2022/02/05 04:56:51;;;;;;;4.15;2.60;;;;;;;4.45;84.46;98644.91;4157798;28;20207;-83
2022/02/05 04:59:40;;;;;;;3.28;2.10;;;;;;;4.52;84.01;98651.53;4169808;28;20625;-81
2022/02/05 05:02:05;;;;;;;4.75;2.65;;;;;;;4.56;83.94;98641.03;4176937;28;20222;-81
2022/02/05 05:04:24;;;;;;;4.15;2.40;;;;;;;4.60;83.62;98640.06;4182075;28;20201;-81
2022/02/05 05:06:44;;;;;;;8.32;2.65;;;;;;;4.65;83.98;98653.63;4188109;28;20231;-82
2022/02/05 05:08:53;;;;;;;4.22;2.42;;;;;;;4.71;83.94;98661.16;4185011;28;20465;-82
2022/02/05 05:11:26;;;;;;;7.20;2.80;;;;;;;4.74;83.50;98661.88;4154633;28;20227;-82
2022/02/05 05:15:14;;;;;;;3.55;2.25;;;;;;;4.79;84.70;98659.13;4185366;28;20231;-82
2022/02/05 05:20:40;;;;;;;3.47;1.75;;;;;;;4.87;84.25;98662.25;4155922;28;20216;-82
2022/02/05 05:22:43;;;;;;;3.03;2.17;;;;;;;4.87;84.60;98675.19;4172925;28;20596;-82
2022/02/05 05:24:50;;;;;;;4.85;2.50;;;;;;;4.86;83.74;98670.94;4176459;28;20208;-81
2022/02/05 05:26:56;;;;;;;3.00;1.73;;;;;;;4.87;83.73;98672.59;4159239;28;20259;-82
2022/02/05 05:28:59;;;;;;;4.30;2.10;;;;;;;4.84;84.44;98665.81;4174745;28;20659;-82
2022/02/05 05:31:02;;;;;;;4.43;3.00;;;;;;;4.87;83.52;98670.03;4169877;28;20883;-81
2022/02/05 05:33:07;;;;;;;3.28;2.60;;;;;;;4.92;83.94;98679.28;4176055;28;20254;-81
2022/02/05 05:35:10;;;;;;;7.70;2.92;;;;;;;4.94;83.26;98671.50;4155466;28;20212;-81
2022/02/05 05:37:16;;;;;;;5.53;3.42;;;;;;;4.93;82.93;98680.13;4171296;28;20212;-82
2022/02/05 05:39:19;;;;;;;5.63;2.25;;;;;;;4.97;82.83;98677.38;4153759;28;20212;-81
2022/02/05 05:41:27;;;;;;;3.75;2.65;;;;;;;5.00;83.40;98679.84;4173826;28;20306;-82
2022/02/05 05:43:42;;;;;;;5.63;2.75;;;;;;;5.05;82.90;98680.53;4170863;28;20200;-83
2022/02/05 05:46:03;;;;;;;3.88;2.63;;;;;;;5.10;83.06;98690.69;4167704;28;20690;-82
2022/02/05 05:48:10;;;;;;;6.65;2.60;;;;;;;5.12;83.62;98687.16;4148215;28;20209;-81
2022/02/05 05:50:47;;;;;;;5.88;3.17;;;;;;;5.17;83.50;98687.81;4173787;28;20219;-82
2022/02/05 05:52:39;;;;;;;4.50;2.83;;;;;;;5.19;83.60;98688.63;4172567;28;20604;-82
2022/02/05 05:54:42;;;;;;;5.15;2.85;;;;;;;5.19;83.41;98692.03;4160711;28;20215;-82
2022/02/05 05:56:48;;;;;;;4.35;2.22;;;;;;;5.21;82.76;98687.63;4174249;28;20215;-82
2022/02/05 05:58:51;;;;;;;4.90;2.47;;;;;;;5.23;83.59;98692.75;4171727;28;20849;-82
2022/02/05 06:00:55;;;;;;;5.10;3.15;;;;;;;5.22;83.22;98694.50;4172690;28;20215;-82
2022/02/05 06:02:58;;;;;;;5.25;3.30;;;;;;;5.22;82.53;98691.91;4172558;28;20638;-81
2022/02/05 06:05:01;;;;;;;6.18;3.90;;;;;;;5.22;83.30;98691.91;4157686;28;20207;-81
2022/02/05 06:07:04;;;;;;;8.00;3.80;;;;;;;5.21;83.39;98687.63;4175537;28;20212;-82
2022/02/05 06:09:09;;;;;;;8.55;3.90;;;;;;;5.21;83.43;98686.81;4171690;28;20199;-81
2022/02/05 06:11:12;;;;;;;9.10;4.07;;;;;;;5.22;82.42;98694.50;4156236;28;20295;-82
2022/02/05 06:13:15;;;;;;;9.13;3.88;;;;;;;5.20;83.25;98696.31;4158615;28;20220;-82
2022/02/05 06:15:19;;;;;;;6.35;2.97;;;;;;;5.21;82.66;98697.97;4154821;28;20197;-82
2022/02/05 06:17:25;;;;;;;5.22;2.63;;;;;;;5.20;82.71;98698.91;4157759;28;20731;-83
2022/02/05 06:19:28;;;;;;;7.30;3.40;;;;;;;5.23;82.92;98700.50;4161506;28;20209;-81
2022/02/05 06:21:31;;;;;;;10.10;2.60;;;;;;;5.22;83.41;98707.44;4179710;28;20571;-83
2022/02/05 06:23:34;;;;;;;3.38;2.60;;;;;;;5.24;83.37;98708.19;4174557;28;20221;-82
2022/02/05 06:25:41;;;;;;;7.80;3.55;;;;;;;5.27;82.70;98715.84;4174001;28;20251;-82
2022/02/05 06:27:44;;;;;;;11.43;3.53;;;;;;;5.31;82.65;98708.84;4176988;28;20211;-82
2022/02/05 06:29:47;;;;;;;5.80;2.50;;;;;;;5.30;83.45;98714.91;4172770;28;20716;-81
2022/02/05 06:31:50;;;;;;;5.15;2.30;;;;;;;5.32;83.23;98721.72;4174897;28;20204;-82
2022/02/05 06:33:53;;;;;;;5.25;2.90;;;;;;;5.31;82.14;98724.34;4162291;28;20212;-82
2022/02/05 06:35:57;;;;;;;4.45;2.83;;;;;;;5.30;82.48;98720.91;4161240;28;20682;-82
2022/02/05 06:38:01;;;;;;;6.15;2.97;;;;;;;5.28;82.63;98714.97;4168197;28;20236;-82
2022/02/05 06:40:05;;;;;;;4.93;2.97;;;;;;;5.26;82.60;98721.94;4175332;28;20238;-81
2022/02/05 06:42:10;;;;;;;4.65;3.00;;;;;;;5.22;82.37;98728.09;4175780;28;20199;-82
2022/02/05 06:44:13;;;;;;;5.38;2.92;;;;;;;5.16;82.28;98728.34;4183706;28;20212;-81
2022/02/05 06:46:17;;;;;;;3.40;2.65;;;;;;;5.06;82.54;98728.72;4173502;28;20207;-82
2022/02/05 06:48:21;;;;;;;7.47;3.33;;;;;;;4.96;82.00;98727.41;4176905;28;20203;-81
2022/02/05 06:50:26;;;;;;;6.50;3.75;;;;;;;4.82;82.59;98744.28;4172568;28;20242;-81
2022/02/05 06:52:29;;;;;;;5.35;3.15;;;;;;;4.74;82.79;98744.53;4186416;28;20228;-82
2022/02/05 06:54:32;;;;;;;4.28;2.63;;;;;;;4.72;83.59;98750.66;4172245;28;20214;-81
2022/02/05 06:56:35;;;;;;;9.13;3.05;;;;;;;4.75;83.66;98753.13;4160580;28;20262;-81
2022/02/05 06:58:39;;;;;;;5.68;3.10;;;;;;;4.71;84.08;98752.41;4177060;28;20206;-82
2022/02/05 07:00:43;;;;;;;6.97;3.13;;;;;;;4.69;83.25;98749.03;4174492;28;20290;-82
2022/02/05 07:02:46;;;;;;;5.05;2.70;;;;;;;4.69;83.48;98756.78;4155306;28;20210;-81
2022/02/05 07:04:49;;;;;;;4.53;2.53;;;;;;;4.66;83.45;98757.78;4174735;28;20703;-82
2022/02/05 07:06:54;;;;;;;4.90;2.35;;;;;;;4.58;83.08;98763.19;4155383;28;20219;-82
2022/02/05 07:08:57;;;;;;;6.43;3.28;;;;;;;4.65;83.27;98763.84;4176000;28;20206;-81
2022/02/05 07:11:01;;;;;;;7.93;3.33;;;;;;;4.63;82.49;98768.19;4177291;28;20226;-82
2022/02/05 07:13:12;;;;;;;7.95;2.83;;;;;;;4.65;83.54;98764.69;4150941;28;20282;-81
2022/02/05 07:15:23;;;;;;;6.47;2.90;;;;;;;4.68;83.15;98763.75;4161347;28;20199;-82
2022/02/05 07:17:35;;;;;;;3.58;2.50;;;;;;;4.68;82.84;98767.16;4168353;28;20262;-82
2022/02/05 07:19:51;;;;;;;4.90;2.67;;;;;;;4.61;83.20;98773.41;4176778;28;20210;-81
2022/02/05 07:21:55;;;;;;;7.82;3.15;;;;;;;4.57;84.93;98773.56;4165010;28;20215;-82
2022/02/05 07:24:17;;;;;;;6.00;3.05;;;;;;;4.59;85.00;98777.81;4174539;28;20214;-83
2022/02/05 07:31:12;;;;;;;6.68;3.28;;;;;;;4.53;83.62;98788.34;4151282;28;20228;-82
2022/02/05 07:33:15;;;;;;;5.97;2.85;;;;;;;4.56;85.41;98790.00;4170945;28;20207;-82
2022/02/05 07:35:18;;;;;;;5.53;3.00;;;;;;;4.60;84.56;98789.84;4174534;28;20198;-82
2022/02/05 07:37:21;;;;;;;3.85;2.60;;;;;;;4.62;83.31;98788.03;4163283;28;20262;-82
2022/02/05 07:39:24;;;;;;;4.85;2.40;;;;;;;4.65;83.46;98789.69;4190116;28;20228;-81
2022/02/05 07:41:27;;;;;;;6.75;3.25;;;;;;;4.69;83.94;98792.06;4188031;28;20206;-82
2022/02/05 07:43:34;;;;;;;5.30;3.08;;;;;;;4.73;83.45;98796.25;4181779;28;20558;-81
2022/02/05 07:45:37;;;;;;;5.95;2.53;;;;;;;4.74;83.37;98792.78;4173520;28;20272;-82
2022/02/05 07:47:42;;;;;;;5.85;3.10;;;;;;;4.76;82.48;98790.97;4165507;28;20211;-82
2022/02/05 07:49:45;;;;;;;3.67;2.50;;;;;;;4.81;83.76;98789.94;4174669;28;20616;-81
2022/02/05 07:51:48;;;;;;;9.52;2.75;;;;;;;4.84;82.92;98794.13;4173368;28;20586;-81
2022/02/05 07:53:53;;;;;;;6.25;3.15;;;;;;;4.89;83.23;98798.25;4177849;28;20253;-82
2022/02/05 07:55:57;;;;;;;6.70;2.78;;;;;;;4.91;82.65;98796.44;4166276;28;20203;-81
2022/02/05 07:58:00;;;;;;;3.17;2.70;;;;;;;4.96;83.40;98798.88;4162325;28;20199;-82
2022/02/05 08:00:05;;;;;;;6.00;2.35;;;;;;;5.02;83.36;98793.50;4177751;28;20623;-80
2022/02/05 08:02:14;;;;;;;6.53;3.10;;;;;;;5.11;82.92;98808.69;4175161;28;20204;-82
2022/02/05 08:04:19;;;;;;;4.75;2.55;;;;;;;5.19;83.01;98803.19;4161155;28;20196;-81
2022/02/05 08:06:22;;;;;;;4.25;2.58;;;;;;;5.24;82.14;98796.09;4177474;28;20701;-80
2022/02/05 08:08:28;;;;;;;5.78;3.10;;;;;;;5.26;82.61;98794.31;4176143;28;20219;-83
2022/02/05 08:10:36;;;;;;;4.13;2.78;;;;;;;5.34;82.67;98802.63;4176983;28;22146;-82
2022/02/05 08:12:42;;;;;;;5.20;3.42;;;;;;;5.43;82.44;98802.31;4194238;28;20221;-82
2022/02/05 08:14:49;;;;;;;5.40;3.10;;;;;;;5.43;81.75;98812.66;4178392;28;20232;-85
2022/02/05 08:16:59;;;;;;;5.47;2.50;;;;;;;5.44;82.17;98813.47;4179185;28;20199;-82
2022/02/05 08:19:02;;;;;;;10.70;5.25;;;;;;;5.48;82.21;98815.91;4159452;28;20305;-84
2022/02/05 08:21:07;;;;;;;15.10;6.80;;;;;;;5.48;81.96;98826.25;4158951;28;20205;-81
2022/02/05 08:23:10;;;;;;;5.00;3.42;;;;;;;5.53;82.14;98826.91;4167593;28;20220;-81
2022/02/05 08:25:18;;;;;;;5.80;3.65;;;;;;;5.60;82.30;98828.38;4160083;28;20206;-82
2022/02/05 08:27:21;;;;;;;8.35;3.85;;;;;;;5.61;82.30;98828.31;4174174;28;20203;-82
2022/02/05 08:29:24;;;;;;;5.00;2.88;;;;;;;5.66;82.13;98834.16;4156609;28;20208;-81
2022/02/05 08:31:27;;;;;;;7.03;3.47;;;;;;;5.65;81.59;98821.28;4174575;28;20232;-83
2022/02/05 08:33:30;;;;;;;7.60;3.30;;;;;;;5.69;81.67;98818.53;4169925;28;20219;-81
2022/02/05 08:35:33;;;;;;;5.88;3.00;;;;;;;5.72;81.47;98815.81;4174934;28;20251;-82
2022/02/05 08:37:40;;;;;;;7.95;3.50;;;;;;;5.79;81.61;98816.50;4163345;28;20188;-82
2022/02/05 08:39:44;;;;;;;4.25;2.85;;;;;;;5.90;81.75;98822.94;4157264;28;20215;-81
2022/02/05 08:41:47;;;;;;;5.18;3.20;;;;;;;5.96;81.15;98824.44;4173721;28;20207;-81
2022/02/05 08:43:51;;;;;;;5.28;2.92;;;;;;;6.05;81.62;98826.69;4174282;28;20211;-81
2022/02/05 08:45:54;;;;;;;7.38;3.78;;;;;;;6.14;81.23;98830.59;4169819;28;20203;-81
2022/02/05 08:47:57;;;;;;;6.78;3.28;;;;;;;6.20;81.29;98829.50;4178560;28;20208;-83
2022/02/05 08:50:00;;;;;;;6.43;3.60;;;;;;;6.19;81.63;98841.63;4159496;28;20210;-83
2022/02/05 08:52:07;;;;;;;7.28;2.83;;;;;;;6.27;81.63;98836.13;4158767;28;20315;-83
2022/02/05 08:54:11;;;;;;;5.82;3.42;;;;;;;6.35;80.77;98844.44;4175988;28;20215;-83
2022/02/05 08:56:15;;;;;;;5.72;3.10;;;;;;;6.36;80.85;98843.53;4172393;28;20196;-84
2022/02/05 08:58:18;;;;;;;4.80;3.10;;;;;;;6.37;81.28;98843.47;4183172;28;20245;-83
2022/02/05 09:00:24;;;;;;;5.68;2.92;;;;;;;6.40;81.29;98845.09;4159281;28;20247;-82
2022/02/05 09:02:35;;;;;;;7.35;3.40;;;;;;;6.42;80.75;98846.75;4172272;28;20232;-82
2022/02/05 09:04:49;;;;;;;20.02;10.93;;;;;;;6.46;80.99;98848.28;4155869;28;20213;-82
2022/02/05 09:06:54;;;;;;;9.80;5.90;;;;;;;6.44;80.47;98844.09;4171986;28;20630;-82
2022/02/05 09:09:08;;;;;;;4.78;3.03;;;;;;;6.36;80.19;98846.97;4165652;28;20216;-81
2022/02/05 09:11:17;;;;;;;5.60;2.67;;;;;;;6.28;80.29;98849.00;4173085;28;20209;-83
2022/02/05 09:13:38;;;;;;;11.10;3.55;;;;;;;6.21;80.81;98850.16;4171760;28;20239;-84
2022/02/05 09:15:42;;;;;;;7.35;3.35;;;;;;;6.26;81.13;98847.41;4195053;28;20315;-84
2022/02/05 09:17:45;;;;;;;8.70;3.20;;;;;;;6.24;81.31;98852.63;4161613;28;20209;-83
2022/02/05 09:19:49;;;;;;;6.53;3.20;;;;;;;6.23;81.35;98850.94;4155463;28;20240;-80
2022/02/05 09:21:52;;;;;;;5.75;3.90;;;;;;;6.30;82.23;98852.41;4157720;28;20209;-83
2022/02/05 09:23:58;;;;;;;8.50;4.30;;;;;;;6.34;81.79;98851.34;4176671;28;20299;-83
2022/02/05 09:26:02;;;;;;;6.85;3.45;;;;;;;6.43;81.88;98856.19;4178056;28;20197;-82
2022/02/05 09:28:10;;;;;;;5.78;3.42;;;;;;;6.58;81.17;98845.19;4168252;28;20263;-83
2022/02/05 09:30:16;;;;;;;19.83;3.58;;;;;;;6.75;81.48;98847.94;4172350;28;20204;-83
2022/02/05 09:32:19;;;;;;;6.85;4.35;;;;;;;6.92;80.38;98848.09;4169602;28;20226;-84
2022/02/05 09:34:22;;;;;;;5.57;3.40;;;;;;;7.04;80.71;98854.44;4155150;28;20215;-83
2022/02/05 09:36:26;;;;;;;5.82;3.50;;;;;;;7.03;79.78;98857.94;4173986;28;20236;-82
2022/02/05 09:38:29;;;;;;;11.27;3.30;;;;;;;7.12;80.03;98852.38;4174869;28;20215;-82
2022/02/05 09:40:33;;;;;;;8.07;3.17;;;;;;;7.24;79.98;98853.59;4176975;28;20204;-82
2022/02/05 09:42:43;;;;;;;7.18;3.03;;;;;;;7.37;79.93;98854.78;4158998;28;20583;-81
2022/02/05 09:44:48;;;;;;;4.70;2.50;;;;;;;7.46;79.43;98852.63;4160198;28;20223;-82
2022/02/05 09:46:51;;;;;;;7.43;3.30;;;;;;;7.50;78.87;98854.13;4170386;28;20569;-82
2022/02/05 09:48:55;;;;;;;5.88;3.15;;;;;;;7.63;78.58;98860.50;4181545;28;20219;-82
2022/02/05 09:51:04;;;;;;;5.50;2.78;;;;;;;7.70;78.79;98867.09;4178377;28;20221;-82
2022/02/05 09:53:15;;;;;;;4.95;2.88;;;;;;;7.74;77.08;98860.84;4180163;28;20318;-82
2022/02/05 09:55:18;;;;;;;6.85;3.30;;;;;;;7.79;77.41;98872.72;4171601;28;20213;-82
2022/02/05 09:57:21;;;;;;;8.02;3.25;;;;;;;7.83;78.11;98863.88;4186215;28;20210;-82
2022/02/05 09:59:26;;;;;;;5.90;3.13;;;;;;;7.82;76.98;98870.00;4154060;28;20205;-82
2022/02/05 10:01:34;;;;;;;6.03;2.90;;;;;;;7.72;78.23;98866.09;4157825;28;20203;-82
2022/02/05 10:03:39;;;;;;;7.40;3.08;;;;;;;7.76;76.96;98872.03;4179875;28;20724;-82
2022/02/05 10:05:43;;;;;;;9.00;2.90;;;;;;;7.88;77.29;98871.44;4176873;28;20660;-82
2022/02/05 10:07:53;;;;;;;4.68;3.20;;;;;;;7.89;75.29;98871.38;4175743;28;20696;-82
2022/02/05 10:09:58;;;;;;;7.63;3.67;;;;;;;7.92;76.22;98878.19;4154593;28;20210;-82
2022/02/05 10:12:01;;;;;;;6.13;3.75;;;;;;;7.96;75.24;98876.22;4167171;28;20236;-82
2022/02/05 10:14:13;;;;;;;4.45;2.50;;;;;;;8.05;75.70;98880.16;4176041;28;20253;-82
2022/02/05 10:16:29;;;;;;;4.95;2.50;;;;;;;8.15;77.75;98874.53;4176777;28;20206;-80
2022/02/05 10:18:35;;;;;;;6.28;3.58;;;;;;;8.42;77.59;98874.97;4179796;28;20206;-82
2022/02/05 10:20:41;;;;;;;5.93;3.15;;;;;;;8.49;76.84;98872.88;4156905;28;20241;-81
2022/02/05 10:22:47;;;;;;;6.60;2.85;;;;;;;8.52;74.78;98872.72;4176687;28;20207;-81
2022/02/05 10:24:50;;;;;;;8.70;2.97;;;;;;;8.58;75.77;98876.78;4172789;28;20695;-82
2022/02/05 10:26:57;;;;;;;10.48;2.75;;;;;;;8.59;75.34;98884.50;4161710;28;20217;-82
2022/02/05 10:29:02;;;;;;;4.97;3.03;;;;;;;8.59;74.30;98883.66;4174459;28;20546;-82
2022/02/05 10:31:06;;;;;;;6.90;3.35;;;;;;;8.44;74.85;98880.03;4156527;28;20227;-82
2022/02/05 10:33:15;;;;;;;6.60;2.90;;;;;;;8.39;75.07;98872.50;4172779;28;20222;-81
2022/02/05 10:35:30;;;;;;;7.50;2.90;;;;;;;8.40;74.79;98872.44;4173857;28;20229;-82
2022/02/05 10:37:42;;;;;;;5.30;2.92;;;;;;;8.41;74.74;98881.09;4170623;28;20214;-82
2022/02/05 10:40:07;;;;;;;7.07;3.00;;;;;;;8.41;74.55;98878.50;4169757;28;20203;-82
2022/02/05 10:44:37;;;;;;;5.45;3.08;;;;;;;8.43;74.92;98877.50;4174609;28;20211;-82
2022/02/05 10:46:43;;;;;;;5.75;2.80;;;;;;;8.43;74.15;98882.69;4174348;28;20689;-82
2022/02/05 10:48:46;;;;;;;8.45;3.15;;;;;;;8.55;74.77;98887.31;4172729;28;20211;-81
2022/02/05 10:50:55;;;;;;;5.50;2.60;;;;;;;8.53;74.31;98883.97;4175718;28;20215;-81
2022/02/05 10:53:06;;;;;;;6.53;2.55;;;;;;;8.55;73.24;98887.31;4163813;28;20229;-81
2022/02/05 10:55:19;;;;;;;5.65;2.95;;;;;;;8.61;73.88;98894.81;4177572;28;20717;-81
2022/02/05 10:57:28;;;;;;;8.48;3.10;;;;;;;8.69;74.45;98898.75;4169633;28;20214;-81
2022/02/05 11:00:10;;;;;;;6.65;3.20;;;;;;;8.82;74.82;98896.41;4180306;28;20219;-81
2022/02/05 11:07:01;;;;;;;8.27;3.00;;;;;;;9.36;76.27;98892.75;4179270;28;20207;-82
2022/02/05 11:09:04;;;;;;;5.45;2.45;;;;;;;9.54;74.27;98889.19;4160885;28;20207;-82
2022/02/05 11:13:53;;;;;;;7.38;2.17;;;;;;;9.79;72.13;98885.25;4161061;28;20586;-81
2022/02/05 11:18:48;;;;;;;4.22;1.60;;;;;;;10.00;69.48;98864.13;4157354;28;20213;-83
2022/02/05 11:20:51;;;;;;;7.40;2.70;;;;;;;10.08;68.43;98874.97;4173429;28;20670;-82
2022/02/05 11:22:59;;;;;;;4.05;1.85;;;;;;;10.19;68.98;98866.56;4175033;28;20215;-82
2022/02/05 11:25:03;;;;;;;5.00;2.08;;;;;;;10.32;68.24;98865.81;4160622;28;20206;-79
2022/02/05 11:27:07;;;;;;;4.30;1.30;;;;;;;10.32;65.55;98864.06;4158495;28;20225;-82
2022/02/05 11:29:29;;;;;;;4.00;1.52;;;;;;;10.21;65.44;98860.38;4173188;28;20918;-82
2022/02/05 11:31:36;;;;;;;4.05;1.77;;;;;;;10.22;67.73;98859.41;4178045;28;20212;-82